createdAt,value
2019-03-16T00:02:06.501Z,100.00
2019-03-16T00:04:36.027Z,100.00
2019-03-16T00:07:06.015Z,100.00
2019-03-16T00:09:36.785Z,100.00
2019-03-16T00:12:06.942Z,100.00
2019-03-16T00:14:38.018Z,100.00
2019-03-16T00:17:08.979Z,100.00
2019-03-16T00:19:39.887Z,100.00
2019-03-16T00:22:09.126Z,100.00
2019-03-16T00:24:38.783Z,100.00
2019-03-16T00:27:09.195Z,100.00
2019-03-16T00:29:38.454Z,100.00
2019-03-16T00:32:13.322Z,100.00
2019-03-16T00:34:38.656Z,100.00
2019-03-16T00:37:09.555Z,100.00
2019-03-16T00:39:40.749Z,100.00
2019-03-16T00:42:10.667Z,100.00
2019-03-16T00:44:40.194Z,100.00
2019-03-16T00:47:24.618Z,100.00
2019-03-16T00:49:53.869Z,100.00
2019-03-16T00:52:23.811Z,100.00
2019-03-16T00:54:55.383Z,100.00
2019-03-16T00:57:24.851Z,100.00
2019-03-16T00:59:56.651Z,100.00
2019-03-16T01:02:27.550Z,100.00
2019-03-16T01:04:57.214Z,100.00
2019-03-16T01:07:26.458Z,100.00
2019-03-16T01:09:55.704Z,100.00
2019-03-16T01:12:27.193Z,100.00
2019-03-16T01:14:56.451Z,99.99
2019-03-16T01:17:25.878Z,100.00
2019-03-16T01:19:55.958Z,100.00
2019-03-16T01:22:25.167Z,100.00
2019-03-16T01:24:56.866Z,99.97
2019-03-16T01:27:26.649Z,98.96
2019-03-16T01:29:56.458Z,99.19
2019-03-16T01:32:40.023Z,99.17
2019-03-16T01:35:04.036Z,99.04
2019-03-16T01:37:35.354Z,99.02
2019-03-16T01:40:06.020Z,99.17
2019-03-16T01:42:35.065Z,99.51
2019-03-16T01:45:06.164Z,99.39
2019-03-16T01:47:35.648Z,99.28
2019-03-16T01:50:13.900Z,99.30
2019-03-16T01:52:54.494Z,99.19
2019-03-16T01:55:31.054Z,99.19
2019-03-16T01:58:03.500Z,98.82
2019-03-16T02:00:32.731Z,98.84
2019-03-16T02:03:09.602Z,98.77
2019-03-16T02:05:39.258Z,98.35
2019-03-16T02:08:10.052Z,98.52
2019-03-16T02:10:40.578Z,98.32
2019-03-16T02:13:10.993Z,98.17
2019-03-16T02:15:40.973Z,98.43
2019-03-16T02:18:10.943Z,98.32
2019-03-16T02:20:42.258Z,98.30
2019-03-16T02:23:11.460Z,98.54
2019-03-16T02:25:40.713Z,98.57
2019-03-16T02:28:10.838Z,98.82
2019-03-16T02:30:42.364Z,98.99
2019-03-16T02:33:13.795Z,99.07
2019-03-16T02:35:46.807Z,99.02
2019-03-16T02:38:17.015Z,98.96
2019-03-16T02:40:48.954Z,98.93
2019-03-16T02:43:20.166Z,99.11
2019-03-16T02:45:52.452Z,98.61
2019-03-16T02:48:21.681Z,98.80
2019-03-16T02:50:51.230Z,98.34
2019-03-16T02:53:20.881Z,97.97
2019-03-16T02:55:51.235Z,98.35
2019-03-16T02:58:22.736Z,98.06
2019-03-16T03:00:54.254Z,98.12
2019-03-16T03:03:29.739Z,97.69
2019-03-16T03:06:00.404Z,97.81
2019-03-16T03:08:29.616Z,98.21
2019-03-16T03:10:59.920Z,97.96
2019-03-16T03:13:34.243Z,97.78
2019-03-16T03:16:05.401Z,97.80
2019-03-16T03:18:35.184Z,97.92
2019-03-16T03:21:05.863Z,97.93
2019-03-16T03:23:35.105Z,97.77
2019-03-16T03:26:07.805Z,97.85
2019-03-16T03:28:37.429Z,97.67
2019-03-16T03:31:07.107Z,97.59
2019-03-16T03:33:57.962Z,97.86
2019-03-16T03:36:12.139Z,97.93
2019-03-16T03:38:47.883Z,98.14
2019-03-16T03:41:17.150Z,97.93
2019-03-16T03:43:46.650Z,97.70
2019-03-16T03:46:15.891Z,97.50
2019-03-16T03:48:46.444Z,97.43
2019-03-16T03:51:16.080Z,97.07
2019-03-16T03:53:47.562Z,97.10
2019-03-16T03:56:17.078Z,96.95
2019-03-16T03:58:47.016Z,97.29
2019-03-16T04:01:20.711Z,97.32
2019-03-16T04:03:50.035Z,97.53
2019-03-16T04:06:21.735Z,97.75
2019-03-16T04:08:50.957Z,98.03
2019-03-16T04:11:20.182Z,98.20
2019-03-16T04:13:50.334Z,98.34
2019-03-16T04:16:20.260Z,98.58
2019-03-16T04:18:52.079Z,98.72
2019-03-16T04:21:21.632Z,98.70
2019-03-16T04:23:50.967Z,98.58
2019-03-16T04:26:20.807Z,98.67
2019-03-16T04:28:52.145Z,98.76
2019-03-16T04:31:21.401Z,98.72
2019-03-16T04:33:50.659Z,98.76
2019-03-16T04:36:20.685Z,98.62
2019-03-16T04:38:51.988Z,98.56
2019-03-16T04:41:21.271Z,98.72
2019-03-16T04:43:50.877Z,98.50
2019-03-16T04:46:22.183Z,98.71
2019-03-16T04:48:51.406Z,98.52
2019-03-16T04:51:22.021Z,98.38
2019-03-16T04:53:51.527Z,98.27
2019-03-16T04:56:21.647Z,98.17
2019-03-16T04:58:53.832Z,98.35
2019-03-16T05:01:23.098Z,98.35
2019-03-16T05:03:55.587Z,98.38
2019-03-16T05:06:24.821Z,98.80
2019-03-16T05:08:54.065Z,98.79
2019-03-16T05:11:23.544Z,98.27
2019-03-16T05:13:54.970Z,97.67
2019-03-16T05:16:24.208Z,96.35
2019-03-16T05:18:53.429Z,95.43
2019-03-16T05:21:23.098Z,94.91
2019-03-16T05:23:54.262Z,95.07
2019-03-16T05:26:23.501Z,94.71
2019-03-16T05:28:53.970Z,95.76
2019-03-16T05:31:24.593Z,96.28
2019-03-16T05:33:55.258Z,96.36
2019-03-16T05:36:24.888Z,96.18
2019-03-16T05:38:54.103Z,96.00
2019-03-16T05:41:24.571Z,94.88
2019-03-16T05:43:54.580Z,95.56
2019-03-16T05:46:24.189Z,95.87
2019-03-16T05:48:53.437Z,95.80
2019-03-16T05:51:22.756Z,95.91
2019-03-16T05:53:53.314Z,95.83
2019-03-16T05:56:23.740Z,96.00
2019-03-16T05:58:53.315Z,95.92
2019-03-16T06:01:24.120Z,95.80
2019-03-16T06:03:53.449Z,96.17
2019-03-16T06:06:27.401Z,96.72
2019-03-16T06:08:56.836Z,96.81
2019-03-16T06:11:30.107Z,96.51
2019-03-16T06:13:59.321Z,96.47
2019-03-16T06:16:28.571Z,97.07
2019-03-16T06:18:59.017Z,97.05
2019-03-16T06:21:30.139Z,97.10
2019-03-16T06:23:59.397Z,97.20
2019-03-16T06:26:29.774Z,97.46
2019-03-16T06:28:59.335Z,97.29
2019-03-16T06:31:29.896Z,97.22
2019-03-16T06:33:59.167Z,97.05
2019-03-16T06:36:28.389Z,97.00
2019-03-16T06:39:00.346Z,97.10
2019-03-16T06:41:31.130Z,97.04
2019-03-16T06:44:02.817Z,96.91
2019-03-16T06:46:32.045Z,96.83
2019-03-16T06:49:03.067Z,96.51
2019-03-16T06:51:32.321Z,96.44
2019-03-16T06:54:01.861Z,96.27
2019-03-16T06:56:34.843Z,96.17
2019-03-16T06:59:04.548Z,96.09
2019-03-16T07:01:33.837Z,95.81
2019-03-16T07:04:04.087Z,95.78
2019-03-16T07:06:35.452Z,95.69
2019-03-16T07:09:07.296Z,95.78
2019-03-16T07:11:36.543Z,95.83
2019-03-16T07:14:06.124Z,95.71
2019-03-16T07:16:36.098Z,95.65
2019-03-16T07:19:05.341Z,95.78
2019-03-16T07:21:35.109Z,95.78
2019-03-16T07:24:04.662Z,95.57
2019-03-16T07:26:34.017Z,95.59
2019-03-16T07:29:04.655Z,94.88
2019-03-16T07:31:37.767Z,95.19
2019-03-16T07:34:10.604Z,95.20
2019-03-16T07:36:39.879Z,95.11
2019-03-16T07:39:14.265Z,95.15
2019-03-16T07:41:43.492Z,95.20
2019-03-16T07:44:12.688Z,95.13
2019-03-16T07:46:42.214Z,95.18
2019-03-16T07:49:11.777Z,95.09
2019-03-16T07:51:41.019Z,94.85
2019-03-16T07:54:10.298Z,94.97
2019-03-16T07:56:39.763Z,94.87
2019-03-16T07:59:08.998Z,94.83
2019-03-16T08:01:38.275Z,94.99
2019-03-16T08:04:07.782Z,94.75
2019-03-16T08:06:37.057Z,94.49
2019-03-16T08:09:07.699Z,94.35
2019-03-16T08:11:55.698Z,94.38
2019-03-16T08:14:26.199Z,93.98
2019-03-16T08:16:57.892Z,93.77
2019-03-16T08:19:27.142Z,93.67
2019-03-16T08:21:57.649Z,93.86
2019-03-16T08:24:29.085Z,93.86
2019-03-16T08:26:59.996Z,93.84
2019-03-16T08:29:31.201Z,93.90
2019-03-16T08:32:11.144Z,93.66
2019-03-16T08:34:43.516Z,93.88
2019-03-16T08:37:14.197Z,93.96
2019-03-16T08:39:43.724Z,93.89
2019-03-16T08:42:15.383Z,93.65
2019-03-16T08:44:44.938Z,94.03
2019-03-16T08:47:14.192Z,94.57
2019-03-16T08:49:44.223Z,94.70
2019-03-16T08:52:16.841Z,94.99
2019-03-16T08:54:46.111Z,95.09
2019-03-16T08:57:15.347Z,94.92
2019-03-16T08:59:44.950Z,95.62
2019-03-16T09:02:18.878Z,96.96
2019-03-16T09:04:50.943Z,98.22
2019-03-16T09:07:22.603Z,99.20
2019-03-16T09:09:52.144Z,99.01
2019-03-16T09:12:21.396Z,98.56
2019-03-16T09:14:50.972Z,97.99
2019-03-16T09:17:20.775Z,97.53
2019-03-16T09:19:50.286Z,97.40
2019-03-16T09:22:19.552Z,96.72
2019-03-16T09:24:50.003Z,96.28
2019-03-16T09:27:30.573Z,96.29
2019-03-16T09:29:54.654Z,96.50
2019-03-16T09:32:24.558Z,96.13
2019-03-16T09:34:54.261Z,96.17
2019-03-16T09:37:24.983Z,95.93
2019-03-16T09:39:54.992Z,95.85
2019-03-16T09:42:24.482Z,95.74
2019-03-16T09:44:55.949Z,95.83
2019-03-16T09:47:25.194Z,95.64
2019-03-16T09:49:54.432Z,95.40
2019-03-16T09:52:23.703Z,95.41
2019-03-16T09:54:54.172Z,94.43
2019-03-16T09:57:24.216Z,94.12
2019-03-16T09:59:55.976Z,93.08
2019-03-16T10:02:27.741Z,92.56
2019-03-16T10:04:57.185Z,92.09
2019-03-16T10:07:27.337Z,92.14
2019-03-16T10:09:56.553Z,90.92
2019-03-16T10:12:28.900Z,90.96
2019-03-16T10:14:59.230Z,90.01
2019-03-16T10:17:29.462Z,89.47
2019-03-16T10:19:58.713Z,89.04
2019-03-16T10:22:30.049Z,90.04
2019-03-16T10:24:59.286Z,89.74
2019-03-16T10:27:29.811Z,89.23
2019-03-16T10:29:59.379Z,88.78
2019-03-16T10:32:29.384Z,88.50
2019-03-16T10:34:59.924Z,87.44
2019-03-16T10:37:29.314Z,87.50
2019-03-16T10:39:58.901Z,86.38
2019-03-16T10:42:29.118Z,85.95
2019-03-16T10:44:59.535Z,86.07
2019-03-16T10:47:31.692Z,85.54
2019-03-16T10:50:03.458Z,84.27
2019-03-16T10:52:37.005Z,84.79
2019-03-16T10:55:06.970Z,84.13
2019-03-16T10:57:36.514Z,83.37
2019-03-16T11:00:08.640Z,82.91
2019-03-16T11:02:39.906Z,83.21
2019-03-16T11:05:09.134Z,83.12
2019-03-16T11:07:38.667Z,82.27
2019-03-16T11:10:12.061Z,83.36
2019-03-16T11:12:43.939Z,83.11
2019-03-16T11:15:13.154Z,82.52
2019-03-16T11:17:42.959Z,82.62
2019-03-16T11:20:12.828Z,82.55
2019-03-16T11:22:42.199Z,82.23
2019-03-16T11:25:12.642Z,82.25
2019-03-16T11:27:43.669Z,81.73
2019-03-16T11:30:14.236Z,83.07
2019-03-16T11:32:44.807Z,82.44
2019-03-16T11:35:17.371Z,81.83
2019-03-16T11:37:46.627Z,81.81
2019-03-16T11:40:21.526Z,83.20
2019-03-16T11:42:51.034Z,83.32
2019-03-16T11:45:20.527Z,84.48
2019-03-16T11:47:49.841Z,84.15
2019-03-16T11:50:19.386Z,85.58
2019-03-16T11:52:56.904Z,85.61
2019-03-16T11:55:26.136Z,84.83
2019-03-16T11:57:56.309Z,84.62
2019-03-16T12:00:27.580Z,84.11
2019-03-16T12:02:56.935Z,83.59
2019-03-16T12:05:26.814Z,83.16
2019-03-16T12:07:56.900Z,82.91
2019-03-16T12:10:26.344Z,82.80
2019-03-16T12:12:56.995Z,83.44
2019-03-16T12:15:27.089Z,81.21
2019-03-16T12:17:58.875Z,79.40
2019-03-16T12:20:28.493Z,79.67
2019-03-16T12:22:58.884Z,79.67
2019-03-16T12:25:31.793Z,77.46
2019-03-16T12:28:01.046Z,77.69
2019-03-16T12:30:30.853Z,75.11
2019-03-16T12:33:02.334Z,75.74
2019-03-16T12:35:31.541Z,74.84
2019-03-16T12:38:03.236Z,75.89
2019-03-16T12:40:34.753Z,74.22
2019-03-16T12:43:04.645Z,75.05
2019-03-16T12:45:33.851Z,74.62
2019-03-16T12:48:04.217Z,74.62
2019-03-16T12:50:33.440Z,75.31
2019-03-16T12:53:04.563Z,73.23
2019-03-16T12:55:35.111Z,73.20
2019-03-16T12:58:07.696Z,73.13
2019-03-16T13:00:37.194Z,73.36
2019-03-16T13:03:07.757Z,72.16
2019-03-16T13:05:40.646Z,70.83
2019-03-16T13:08:11.643Z,70.77
2019-03-16T13:10:44.583Z,70.37
2019-03-16T13:13:15.125Z,67.46
2019-03-16T13:15:44.642Z,68.12
2019-03-16T13:18:16.603Z,68.76
2019-03-16T13:20:50.392Z,67.37
2019-03-16T13:23:19.702Z,68.09
2019-03-16T13:25:49.958Z,68.09
2019-03-16T13:28:19.539Z,67.58
2019-03-16T13:30:49.560Z,68.17
2019-03-16T13:33:24.170Z,68.96
2019-03-16T13:35:53.378Z,67.87
2019-03-16T13:38:23.442Z,68.69
2019-03-16T13:40:56.050Z,68.26
2019-03-16T13:43:28.091Z,69.16
2019-03-16T13:45:59.427Z,68.90
2019-03-16T13:48:29.806Z,67.88
2019-03-16T13:51:07.252Z,68.52
2019-03-16T13:53:37.519Z,67.32
2019-03-16T13:56:07.208Z,68.43
2019-03-16T13:58:36.467Z,67.84
2019-03-16T14:01:05.686Z,68.76
2019-03-16T14:03:37.492Z,67.50
2019-03-16T14:06:07.328Z,67.29
2019-03-16T14:08:36.640Z,69.02
2019-03-16T14:11:08.091Z,67.80
2019-03-16T14:13:37.414Z,67.54
2019-03-16T14:16:07.250Z,67.15
2019-03-16T14:18:36.941Z,66.33
2019-03-16T14:21:06.290Z,65.60
2019-03-16T14:23:36.697Z,64.87
2019-03-16T14:26:09.713Z,61.57
2019-03-16T14:28:39.028Z,55.69
2019-03-16T14:31:09.344Z,55.69
2019-03-16T14:33:41.396Z,56.86
2019-03-16T14:36:10.711Z,54.13
2019-03-16T14:38:40.827Z,53.84
2019-03-16T14:41:09.901Z,57.41
2019-03-16T14:43:40.150Z,55.17
2019-03-16T14:46:12.217Z,55.26
2019-03-16T14:48:41.788Z,56.18
2019-03-16T14:51:11.124Z,54.17
2019-03-16T14:53:48.505Z,55.65
2019-03-16T14:56:17.733Z,56.53
2019-03-16T14:58:46.980Z,58.54
2019-03-16T15:01:24.143Z,58.53
2019-03-16T15:03:54.785Z,58.87
2019-03-16T15:06:24.061Z,60.43
2019-03-16T15:08:56.792Z,59.61
2019-03-16T15:11:27.288Z,59.56
2019-03-16T15:14:02.705Z,60.81
2019-03-16T15:16:34.804Z,58.38
2019-03-16T15:19:13.125Z,59.04
2019-03-16T15:21:43.824Z,57.74
2019-03-16T15:24:14.385Z,58.16
2019-03-16T15:26:44.245Z,56.39
2019-03-16T15:29:14.276Z,54.05
2019-03-16T15:31:43.740Z,53.94
2019-03-16T15:34:13.944Z,54.50
2019-03-16T15:36:43.862Z,56.16
2019-03-16T15:39:16.080Z,57.26
2019-03-16T15:41:47.900Z,57.29
2019-03-16T15:44:20.139Z,58.18
2019-03-16T15:46:50.186Z,58.79
2019-03-16T15:49:22.495Z,58.60
2019-03-16T15:51:51.740Z,58.55
2019-03-16T15:54:25.793Z,58.79
2019-03-16T15:56:57.923Z,60.00
2019-03-16T15:59:28.569Z,60.58
2019-03-16T16:01:57.800Z,60.81
2019-03-16T16:04:28.700Z,60.73
2019-03-16T16:06:59.591Z,60.84
2019-03-16T16:09:31.465Z,61.28
2019-03-16T16:12:01.223Z,60.71
2019-03-16T16:14:30.490Z,60.03
2019-03-16T16:16:59.729Z,58.84
2019-03-16T16:19:29.327Z,59.05
2019-03-16T16:22:03.246Z,59.19
2019-03-16T16:24:32.648Z,60.05
2019-03-16T16:27:02.100Z,60.57
2019-03-16T16:29:33.914Z,61.16
2019-03-16T16:32:06.817Z,62.69
2019-03-16T16:34:40.261Z,63.14
2019-03-16T16:37:11.232Z,61.97
2019-03-16T16:39:41.427Z,62.79
2019-03-16T16:42:12.267Z,61.96
2019-03-16T16:44:44.151Z,61.32
2019-03-16T16:47:14.687Z,62.14
2019-03-16T16:49:46.666Z,61.67
2019-03-16T16:52:19.545Z,61.98
2019-03-16T16:54:51.652Z,62.34
2019-03-16T16:57:25.393Z,63.19
2019-03-16T16:59:58.401Z,62.76
2019-03-16T17:02:28.324Z,62.92
2019-03-16T17:04:59.314Z,63.41
2019-03-16T17:07:31.059Z,63.11
2019-03-16T17:10:00.591Z,63.33
2019-03-16T17:12:37.993Z,63.51
2019-03-16T17:18:36.686Z,63.71
2019-03-16T17:21:06.268Z,64.03
2019-03-16T17:23:35.647Z,64.87
2019-03-16T17:26:05.146Z,64.66
2019-03-16T17:28:34.509Z,64.79
2019-03-16T17:31:06.856Z,65.12
2019-03-16T17:33:36.090Z,65.26
2019-03-16T17:36:05.484Z,65.79
2019-03-16T17:38:34.771Z,65.68
2019-03-16T17:41:04.584Z,65.84
2019-03-16T17:43:33.874Z,66.27
2019-03-16T17:46:03.685Z,66.60
2019-03-16T17:48:33.123Z,66.98
2019-03-16T17:51:02.593Z,67.74
2019-03-16T17:53:32.160Z,68.45
2019-03-16T17:56:02.222Z,69.29
2019-03-16T17:58:31.942Z,68.92
2019-03-16T18:01:01.504Z,69.23
2019-03-16T18:03:30.845Z,69.83
2019-03-16T18:06:00.274Z,69.96
2019-03-16T18:08:30.639Z,69.46
2019-03-16T18:10:59.972Z,69.89
2019-03-16T18:13:29.354Z,70.24
2019-03-16T18:16:01.661Z,70.84
2019-03-16T18:18:31.497Z,72.17
2019-03-16T18:21:00.893Z,72.20
2019-03-16T18:23:30.193Z,73.01
2019-03-16T18:26:00.110Z,73.76
2019-03-16T18:28:29.625Z,75.12
2019-03-16T18:30:59.067Z,75.84
2019-03-16T18:33:29.532Z,76.23
2019-03-16T18:35:59.919Z,76.99
2019-03-16T18:38:29.256Z,77.19
2019-03-16T18:40:58.970Z,77.40
2019-03-16T18:43:29.466Z,77.39
2019-03-16T18:45:59.120Z,77.45
2019-03-16T18:48:30.403Z,77.48
2019-03-16T18:50:59.544Z,77.84
2019-03-16T18:53:30.263Z,78.01
2019-03-16T18:55:59.541Z,78.28
2019-03-16T18:58:37.279Z,78.36
2019-03-16T19:01:00.970Z,78.55
2019-03-16T19:03:31.224Z,79.01
2019-03-16T19:06:00.475Z,79.16
2019-03-16T19:08:29.700Z,79.28
2019-03-16T19:10:58.948Z,79.82
2019-03-16T19:13:28.173Z,80.63
2019-03-16T19:15:59.179Z,80.97
2019-03-16T19:18:28.441Z,82.28
2019-03-16T19:20:57.797Z,82.96
2019-03-16T19:23:27.012Z,82.94
2019-03-16T19:25:58.457Z,82.83
2019-03-16T19:28:27.687Z,82.93
2019-03-16T19:30:57.023Z,82.84
2019-03-16T19:33:26.245Z,82.79
2019-03-16T19:35:55.498Z,83.14
2019-03-16T19:38:25.530Z,83.39
2019-03-16T19:40:55.134Z,83.55
2019-03-16T19:43:24.378Z,83.84
2019-03-16T19:45:53.662Z,83.69
2019-03-16T19:48:22.882Z,83.92
2019-03-16T19:50:52.159Z,84.00
2019-03-16T19:53:21.391Z,83.85
2019-03-16T19:55:50.699Z,84.96
2019-03-16T19:58:20.029Z,84.93
2019-03-16T20:00:49.298Z,84.99
2019-03-16T20:03:18.803Z,85.32
2019-03-16T20:05:48.265Z,85.07
2019-03-16T20:08:17.497Z,84.75
2019-03-16T20:10:46.760Z,86.50
2019-03-16T20:13:16.744Z,86.97
2019-03-16T20:15:45.996Z,86.60
2019-03-16T20:18:15.234Z,87.07
2019-03-16T20:20:44.489Z,86.88
2019-03-16T20:23:14.804Z,87.57
2019-03-16T20:25:44.075Z,87.33
2019-03-16T20:28:13.329Z,87.28
2019-03-16T20:30:42.572Z,87.30
2019-03-16T20:33:11.845Z,87.48
2019-03-16T20:35:41.885Z,87.98
2019-03-16T20:38:11.110Z,88.78
2019-03-16T20:40:40.351Z,88.52
2019-03-16T20:43:10.485Z,88.16
2019-03-16T20:45:39.799Z,88.04
2019-03-16T20:48:08.626Z,88.28
2019-03-16T20:50:38.487Z,88.38
2019-03-16T20:53:07.750Z,88.50
2019-03-16T20:55:37.133Z,88.09
2019-03-16T20:58:08.690Z,87.74
2019-03-16T21:00:37.932Z,87.68
2019-03-16T21:03:15.846Z,87.92
2019-03-16T21:05:38.218Z,88.15
2019-03-16T21:08:07.447Z,88.33
2019-03-16T21:10:36.670Z,88.26
2019-03-16T21:13:07.357Z,88.36
2019-03-16T21:15:37.174Z,88.12
2019-03-16T21:18:07.966Z,88.56
2019-03-16T21:20:38.421Z,88.43
2019-03-16T21:23:07.696Z,88.33
2019-03-16T21:25:38.177Z,88.07
2019-03-16T21:28:07.424Z,87.97
2019-03-16T21:30:36.683Z,87.97
2019-03-16T21:33:05.974Z,88.38
2019-03-16T21:35:35.558Z,88.48
2019-03-16T21:38:04.819Z,88.76
2019-03-16T21:40:34.119Z,88.71
2019-03-16T21:43:03.407Z,88.71
2019-03-16T21:45:32.660Z,89.44
2019-03-16T21:48:01.938Z,89.72
2019-03-16T21:50:31.454Z,90.09
2019-03-16T21:53:00.717Z,89.71
2019-03-16T21:55:30.761Z,89.13
2019-03-16T21:58:03.482Z,88.50
2019-03-16T22:00:32.936Z,88.29
2019-03-16T22:03:02.197Z,88.23
2019-03-16T22:05:31.447Z,88.52
2019-03-16T22:08:00.698Z,88.43
2019-03-16T22:10:30.802Z,88.94
2019-03-16T22:13:00.282Z,89.93
2019-03-16T22:15:29.508Z,90.26
2019-03-16T22:17:59.779Z,89.92
2019-03-16T22:20:29.008Z,89.62
2019-03-16T22:22:58.262Z,89.47
2019-03-16T22:25:28.216Z,89.46
2019-03-16T22:27:57.741Z,88.90
2019-03-16T22:30:28.242Z,88.95
2019-03-16T22:32:57.297Z,88.75
2019-03-16T22:35:26.514Z,88.77
2019-03-16T22:37:57.762Z,90.24
2019-03-16T22:40:27.575Z,90.25
2019-03-16T22:42:58.371Z,89.85
2019-03-16T22:45:27.956Z,88.89
2019-03-16T22:47:57.289Z,88.11
2019-03-16T22:50:26.573Z,87.61
2019-03-16T22:52:56.525Z,87.61
2019-03-16T22:55:26.098Z,88.15
2019-03-16T22:57:55.446Z,87.97
2019-03-16T23:00:28.845Z,87.55
2019-03-16T23:02:58.145Z,87.72
2019-03-16T23:05:28.183Z,88.05
2019-03-16T23:07:57.459Z,88.68
2019-03-16T23:10:26.735Z,88.50
2019-03-16T23:12:58.242Z,88.16
2019-03-16T23:15:27.639Z,87.65
2019-03-16T23:17:58.673Z,87.66
2019-03-16T23:20:28.242Z,88.27
2019-03-16T23:22:57.871Z,89.34
2019-03-16T23:25:27.414Z,89.08
2019-03-16T23:27:57.168Z,88.64
2019-03-16T23:30:28.536Z,88.56
2019-03-16T23:32:58.025Z,89.48
2019-03-16T23:35:27.821Z,89.97
2019-03-16T23:37:57.074Z,90.67
2019-03-16T23:40:26.298Z,90.55
2019-03-16T23:42:56.985Z,90.05
2019-03-16T23:45:27.072Z,89.66
2019-03-16T23:47:56.335Z,89.30
2019-03-16T23:50:25.600Z,89.06
2019-03-16T23:52:55.627Z,88.70
2019-03-16T23:55:25.184Z,88.58
2019-03-16T23:57:56.331Z,88.29
